Rock Island, TN (38581)

9:15 AM CST on December 11, 2016 (GMT -0600)
Rock Island | | Change Station

Elev 892 ft 35.78 °N, 85.61 °W | Updated 12 seconds ago

Clear
Clear
45.5 °F
Feels Like 41 °F
N
9.0
Wind Variable Wind from SSE

Today
High -- | Low -- °F
--% Chance of Precip.
Yesterday
High -- | Low -- °F
Precip. -- in
Pressure 30.33 in
Visibility 10.0 miles
Clouds Clear
Windchill 41 °F
Dew Point 20 °F
Humidity 37%
Rainfall 0.00 in
Snow Depth Not available.
6:42 AM 4:29 PM
Waxing Gibbous, 92% visible
METAR KCSV 111453Z AUTO 20008G18KT 150V230 10SM CLR 04/M08 A3029 RMK AO2 SLP271 T00391078 53004
Pressure 30.33 in
Visibility 10.0 miles
Clouds Clear
Windchill 41 °F
Dew Point 20 °F
Humidity 37%
Rainfall 0.00 in
Snow Depth Not available.
6:42 AM 4:29 PM
Waxing Gibbous, 92% visible
METAR KCSV 111453Z AUTO 20008G18KT 150V230 10SM CLR 04/M08 A3029 RMK AO2 SLP271 T00391078 53004

10-Day Weather Forecast

Almanac

Astronomy

Dec. 11, 2016 Rise Set
Actual Time
Civil Twilight
Nautical Twilight
Astronomical Twilight
Moon
Length of Visible Light
Length of Day
Tomorrow will be .
, % of the Moon is Illuminated

Today's Extremes

State Highs State Lows

Community

WunderPhotos

Upload Photos

1,956,725 photos uploaded!

WunderBlog® & News

Nearby

Air Quality

  Air Quality AQ Index Pollutant
Not available.

Snow Depth

Station Depth Elevation

Earthquake Activity

City Distance Mag. Time & Date
Minimum magnitude displayed is 2.5.

Coastal Water Temperatures

Place Temperature

Stations

Nearby Weather Stations

Station Location Temp. Windchill Dew Point Humidity Wind Precip. Elev Updated Type
                   

Watches & Warnings

There are currently no watches in effect.